sensor_id;sensor_type;location;lat;lon;timestamp;P1;durP1;ratioP1;P2;durP2;ratioP2
3225;SDS011;1625;49.884;8.666;2022-08-20T00:01:18;5.40;;;5.00;;
3225;SDS011;1625;49.884;8.666;2022-08-20T00:03:44;5.63;;;5.17;;
3225;SDS011;1625;49.884;8.666;2022-08-20T00:06:12;6.10;;;4.67;;
3225;SDS011;1625;49.884;8.666;2022-08-20T00:08:39;5.60;;;5.10;;
3225;SDS011;1625;49.884;8.666;2022-08-20T00:11:06;8.33;;;5.23;;
3225;SDS011;1625;49.884;8.666;2022-08-20T00:13:39;5.53;;;5.00;;
3225;SDS011;1625;49.884;8.666;2022-08-20T00:16:09;8.13;;;5.70;;
3225;SDS011;1625;49.884;8.666;2022-08-20T00:18:36;6.30;;;5.70;;
3225;SDS011;1625;49.884;8.666;2022-08-20T00:21:03;5.10;;;4.60;;
3225;SDS011;1625;49.884;8.666;2022-08-20T00:23:35;5.77;;;5.37;;
3225;SDS011;1625;49.884;8.666;2022-08-20T00:26:03;5.57;;;5.07;;
3225;SDS011;1625;49.884;8.666;2022-08-20T00:28:29;5.40;;;4.90;;
3225;SDS011;1625;49.884;8.666;2022-08-20T00:30:54;5.23;;;4.83;;
3225;SDS011;1625;49.884;8.666;2022-08-20T00:33:21;5.93;;;5.43;;
3225;SDS011;1625;49.884;8.666;2022-08-20T00:35:48;5.47;;;4.97;;
3225;SDS011;1625;49.884;8.666;2022-08-20T00:38:16;5.10;;;4.70;;
3225;SDS011;1625;49.884;8.666;2022-08-20T00:40:47;7.83;;;5.00;;
3225;SDS011;1625;49.884;8.666;2022-08-20T00:46:04;5.30;;;4.90;;
3225;SDS011;1625;49.884;8.666;2022-08-20T00:48:42;5.10;;;4.70;;
3225;SDS011;1625;49.884;8.666;2022-08-20T00:51:26;4.90;;;4.50;;
3225;SDS011;1625;49.884;8.666;2022-08-20T00:54:19;5.03;;;4.63;;
3225;SDS011;1625;49.884;8.666;2022-08-20T00:57:08;5.03;;;4.57;;
3225;SDS011;1625;49.884;8.666;2022-08-20T00:59:37;5.27;;;4.87;;
3225;SDS011;1625;49.884;8.666;2022-08-20T01:02:06;5.40;;;4.90;;
3225;SDS011;1625;49.884;8.666;2022-08-20T01:04:36;5.10;;;4.70;;
3225;SDS011;1625;49.884;8.666;2022-08-20T01:07:02;5.00;;;4.60;;
3225;SDS011;1625;49.884;8.666;2022-08-20T01:09:29;5.40;;;4.90;;
3225;SDS011;1625;49.884;8.666;2022-08-20T01:11:55;4.80;;;4.27;;
3225;SDS011;1625;49.884;8.666;2022-08-20T01:14:30;5.67;;;4.97;;
3225;SDS011;1625;49.884;8.666;2022-08-20T01:16:59;5.57;;;5.07;;
3225;SDS011;1625;49.884;8.666;2022-08-20T01:19:30;5.00;;;4.60;;
3225;SDS011;1625;49.884;8.666;2022-08-20T01:22:03;5.33;;;4.93;;
3225;SDS011;1625;49.884;8.666;2022-08-20T01:24:51;5.93;;;4.30;;
3225;SDS011;1625;49.884;8.666;2022-08-20T01:27:25;5.17;;;4.67;;
3225;SDS011;1625;49.884;8.666;2022-08-20T01:29:52;6.10;;;5.57;;
3225;SDS011;1625;49.884;8.666;2022-08-20T01:32:18;5.97;;;4.53;;
3225;SDS011;1625;49.884;8.666;2022-08-20T01:34:43;4.90;;;4.40;;
3225;SDS011;1625;49.884;8.666;2022-08-20T01:37:09;4.87;;;4.47;;
3225;SDS011;1625;49.884;8.666;2022-08-20T01:39:35;5.00;;;4.30;;
3225;SDS011;1625;49.884;8.666;2022-08-20T01:44:57;5.97;;;5.40;;
3225;SDS011;1625;49.884;8.666;2022-08-20T01:47:24;5.90;;;5.40;;
3225;SDS011;1625;49.884;8.666;2022-08-20T01:49:53;5.93;;;5.43;;
3225;SDS011;1625;49.884;8.666;2022-08-20T01:52:26;6.67;;;6.17;;
3225;SDS011;1625;49.884;8.666;2022-08-20T01:54:57;6.10;;;5.60;;
3225;SDS011;1625;49.884;8.666;2022-08-20T01:57:23;6.80;;;6.20;;
3225;SDS011;1625;49.884;8.666;2022-08-20T01:59:53;6.27;;;5.77;;
3225;SDS011;1625;49.884;8.666;2022-08-20T02:02:20;5.87;;;5.20;;
3225;SDS011;1625;49.884;8.666;2022-08-20T02:04:48;5.57;;;5.17;;
3225;SDS011;1625;49.884;8.666;2022-08-20T02:07:14;4.60;;;4.23;;
3225;SDS011;1625;49.884;8.666;2022-08-20T02:09:46;5.30;;;4.83;;
3225;SDS011;1625;49.884;8.666;2022-08-20T02:12:12;5.90;;;5.37;;
3225;SDS011;1625;49.884;8.666;2022-08-20T02:14:43;5.67;;;5.17;;
3225;SDS011;1625;49.884;8.666;2022-08-20T02:17:11;6.40;;;5.90;;
3225;SDS011;1625;49.884;8.666;2022-08-20T02:19:39;6.43;;;5.83;;
3225;SDS011;1625;49.884;8.666;2022-08-20T02:22:10;6.03;;;4.93;;
3225;SDS011;1625;49.884;8.666;2022-08-20T02:24:56;5.53;;;5.03;;
3225;SDS011;1625;49.884;8.666;2022-08-20T02:27:22;7.03;;;4.87;;
3225;SDS011;1625;49.884;8.666;2022-08-20T02:29:48;6.30;;;5.80;;
3225;SDS011;1625;49.884;8.666;2022-08-20T02:32:15;4.83;;;4.43;;
3225;SDS011;1625;49.884;8.666;2022-08-20T02:34:41;5.60;;;5.10;;
3225;SDS011;1625;49.884;8.666;2022-08-20T02:37:07;5.23;;;4.83;;
3225;SDS011;1625;49.884;8.666;2022-08-20T02:39:32;5.30;;;4.80;;
3225;SDS011;1625;49.884;8.666;2022-08-20T02:41:58;5.13;;;4.70;;
3225;SDS011;1625;49.884;8.666;2022-08-20T02:44:26;5.47;;;5.07;;
3225;SDS011;1625;49.884;8.666;2022-08-20T02:46:51;5.37;;;4.97;;
3225;SDS011;1625;49.884;8.666;2022-08-20T02:49:17;5.27;;;4.77;;
3225;SDS011;1625;49.884;8.666;2022-08-20T02:51:44;5.20;;;4.80;;
3225;SDS011;1625;49.884;8.666;2022-08-20T02:54:11;5.23;;;4.83;;
3225;SDS011;1625;49.884;8.666;2022-08-20T02:56:37;5.07;;;4.67;;
3225;SDS011;1625;49.884;8.666;2022-08-20T02:59:03;5.80;;;4.73;;
3225;SDS011;1625;49.884;8.666;2022-08-20T03:01:29;4.50;;;4.20;;
3225;SDS011;1625;49.884;8.666;2022-08-20T03:03:55;4.90;;;4.50;;
3225;SDS011;1625;49.884;8.666;2022-08-20T03:06:23;5.80;;;5.40;;
3225;SDS011;1625;49.884;8.666;2022-08-20T03:08:49;4.90;;;4.50;;
3225;SDS011;1625;49.884;8.666;2022-08-20T03:11:15;5.73;;;5.27;;
3225;SDS011;1625;49.884;8.666;2022-08-20T03:13:41;5.83;;;5.40;;
3225;SDS011;1625;49.884;8.666;2022-08-20T03:16:07;5.53;;;5.07;;
3225;SDS011;1625;49.884;8.666;2022-08-20T03:18:34;4.97;;;4.47;;
3225;SDS011;1625;49.884;8.666;2022-08-20T03:21:04;5.10;;;4.70;;
3225;SDS011;1625;49.884;8.666;2022-08-20T03:23:32;5.87;;;5.37;;
3225;SDS011;1625;49.884;8.666;2022-08-20T03:25:58;5.13;;;4.70;;
3225;SDS011;1625;49.884;8.666;2022-08-20T03:28:24;5.90;;;5.30;;
3225;SDS011;1625;49.884;8.666;2022-08-20T03:30:50;4.37;;;3.97;;
3225;SDS011;1625;49.884;8.666;2022-08-20T03:33:17;5.97;;;4.40;;
3225;SDS011;1625;49.884;8.666;2022-08-20T03:35:44;5.10;;;4.70;;
3225;SDS011;1625;49.884;8.666;2022-08-20T03:38:10;5.10;;;4.70;;
3225;SDS011;1625;49.884;8.666;2022-08-20T03:40:37;4.50;;;4.20;;
3225;SDS011;1625;49.884;8.666;2022-08-20T03:43:04;4.70;;;4.30;;
3225;SDS011;1625;49.884;8.666;2022-08-20T03:45:32;4.67;;;4.37;;
3225;SDS011;1625;49.884;8.666;2022-08-20T03:47:59;4.67;;;4.27;;
3225;SDS011;1625;49.884;8.666;2022-08-20T03:50:27;4.77;;;4.47;;
3225;SDS011;1625;49.884;8.666;2022-08-20T03:52:54;5.27;;;4.30;;
3225;SDS011;1625;49.884;8.666;2022-08-20T03:55:21;4.53;;;4.23;;
3225;SDS011;1625;49.884;8.666;2022-08-20T03:57:49;4.67;;;4.30;;
3225;SDS011;1625;49.884;8.666;2022-08-20T04:00:59;4.67;;;4.27;;
3225;SDS011;1625;49.884;8.666;2022-08-20T04:03:08;4.50;;;4.20;;
3225;SDS011;1625;49.884;8.666;2022-08-20T04:05:34;5.93;;;5.40;;
3225;SDS011;1625;49.884;8.666;2022-08-20T04:08:04;5.07;;;4.70;;
3225;SDS011;1625;49.884;8.666;2022-08-20T04:10:32;5.23;;;4.73;;
3225;SDS011;1625;49.884;8.666;2022-08-20T04:12:58;5.00;;;4.57;;
3225;SDS011;1625;49.884;8.666;2022-08-20T04:15:24;4.57;;;4.27;;
3225;SDS011;1625;49.884;8.666;2022-08-20T04:17:50;4.60;;;4.20;;
3225;SDS011;1625;49.884;8.666;2022-08-20T04:20:18;5.20;;;4.70;;
3225;SDS011;1625;49.884;8.666;2022-08-20T04:22:48;4.47;;;4.17;;
3225;SDS011;1625;49.884;8.666;2022-08-20T04:25:14;4.90;;;4.50;;
3225;SDS011;1625;49.884;8.666;2022-08-20T04:27:40;5.90;;;4.17;;
3225;SDS011;1625;49.884;8.666;2022-08-20T04:30:07;4.37;;;4.00;;
3225;SDS011;1625;49.884;8.666;2022-08-20T04:32:36;4.63;;;4.23;;
3225;SDS011;1625;49.884;8.666;2022-08-20T04:35:03;4.33;;;4.03;;
3225;SDS011;1625;49.884;8.666;2022-08-20T04:37:31;4.07;;;3.77;;
3225;SDS011;1625;49.884;8.666;2022-08-20T04:39:58;4.23;;;3.83;;
3225;SDS011;1625;49.884;8.666;2022-08-20T04:42:49;4.50;;;4.10;;
3225;SDS011;1625;49.884;8.666;2022-08-20T04:45:15;4.27;;;3.93;;
3225;SDS011;1625;49.884;8.666;2022-08-20T04:47:40;4.73;;;4.40;;
3225;SDS011;1625;49.884;8.666;2022-08-20T04:50:07;4.70;;;4.30;;
3225;SDS011;1625;49.884;8.666;2022-08-20T04:52:34;5.00;;;4.60;;
3225;SDS011;1625;49.884;8.666;2022-08-20T04:55:00;4.50;;;4.20;;
3225;SDS011;1625;49.884;8.666;2022-08-20T04:57:26;4.70;;;4.30;;
3225;SDS011;1625;49.884;8.666;2022-08-20T04:59:52;4.60;;;4.17;;
3225;SDS011;1625;49.884;8.666;2022-08-20T05:02:18;4.80;;;4.40;;
3225;SDS011;1625;49.884;8.666;2022-08-20T05:04:45;4.83;;;4.43;;
3225;SDS011;1625;49.884;8.666;2022-08-20T05:07:11;5.00;;;4.23;;
3225;SDS011;1625;49.884;8.666;2022-08-20T05:09:38;4.67;;;4.27;;
3225;SDS011;1625;49.884;8.666;2022-08-20T05:12:04;4.17;;;3.87;;
3225;SDS011;1625;49.884;8.666;2022-08-20T05:14:30;4.50;;;4.10;;
3225;SDS011;1625;49.884;8.666;2022-08-20T05:16:55;4.77;;;4.37;;
3225;SDS011;1625;49.884;8.666;2022-08-20T05:19:23;4.40;;;4.10;;
3225;SDS011;1625;49.884;8.666;2022-08-20T05:21:50;4.60;;;4.23;;
3225;SDS011;1625;49.884;8.666;2022-08-20T05:24:17;4.30;;;3.93;;
3225;SDS011;1625;49.884;8.666;2022-08-20T05:26:43;4.20;;;3.80;;
3225;SDS011;1625;49.884;8.666;2022-08-20T05:29:09;4.37;;;3.97;;
3225;SDS011;1625;49.884;8.666;2022-08-20T05:31:35;4.27;;;3.97;;
3225;SDS011;1625;49.884;8.666;2022-08-20T05:34:03;4.50;;;4.00;;
3225;SDS011;1625;49.884;8.666;2022-08-20T05:36:33;3.83;;;3.53;;
3225;SDS011;1625;49.884;8.666;2022-08-20T05:38:59;4.00;;;3.70;;
3225;SDS011;1625;49.884;8.666;2022-08-20T05:41:24;3.40;;;3.10;;
3225;SDS011;1625;49.884;8.666;2022-08-20T05:43:53;3.50;;;3.20;;
3225;SDS011;1625;49.884;8.666;2022-08-20T05:46:19;4.20;;;3.80;;
3225;SDS011;1625;49.884;8.666;2022-08-20T05:48:46;3.70;;;3.40;;
3225;SDS011;1625;49.884;8.666;2022-08-20T05:51:11;4.00;;;3.70;;
3225;SDS011;1625;49.884;8.666;2022-08-20T05:53:37;3.97;;;3.67;;
3225;SDS011;1625;49.884;8.666;2022-08-20T05:56:02;3.30;;;3.00;;
3225;SDS011;1625;49.884;8.666;2022-08-20T05:58:28;4.90;;;3.70;;
3225;SDS011;1625;49.884;8.666;2022-08-20T06:00:56;4.00;;;3.60;;
3225;SDS011;1625;49.884;8.666;2022-08-20T06:03:23;4.97;;;3.83;;
3225;SDS011;1625;49.884;8.666;2022-08-20T06:06:08;3.53;;;3.20;;
3225;SDS011;1625;49.884;8.666;2022-08-20T06:08:33;3.57;;;3.27;;
3225;SDS011;1625;49.884;8.666;2022-08-20T06:11:00;3.90;;;3.50;;
3225;SDS011;1625;49.884;8.666;2022-08-20T06:13:25;3.70;;;3.40;;
3225;SDS011;1625;49.884;8.666;2022-08-20T06:15:52;4.70;;;3.80;;
3225;SDS011;1625;49.884;8.666;2022-08-20T06:18:19;4.10;;;3.80;;
3225;SDS011;1625;49.884;8.666;2022-08-20T06:20:45;4.60;;;4.20;;
3225;SDS011;1625;49.884;8.666;2022-08-20T06:23:10;4.00;;;3.70;;
3225;SDS011;1625;49.884;8.666;2022-08-20T06:25:36;3.77;;;3.40;;
3225;SDS011;1625;49.884;8.666;2022-08-20T06:28:02;3.70;;;3.40;;
3225;SDS011;1625;49.884;8.666;2022-08-20T06:30:29;3.47;;;3.23;;
3225;SDS011;1625;49.884;8.666;2022-08-20T06:32:54;3.50;;;3.20;;
3225;SDS011;1625;49.884;8.666;2022-08-20T06:35:20;3.30;;;3.00;;
3225;SDS011;1625;49.884;8.666;2022-08-20T06:37:46;3.60;;;3.30;;
3225;SDS011;1625;49.884;8.666;2022-08-20T06:40:14;3.60;;;3.30;;
3225;SDS011;1625;49.884;8.666;2022-08-20T06:42:43;3.90;;;3.20;;
3225;SDS011;1625;49.884;8.666;2022-08-20T06:45:13;3.50;;;3.20;;
3225;SDS011;1625;49.884;8.666;2022-08-20T06:47:40;4.67;;;4.37;;
3225;SDS011;1625;49.884;8.666;2022-08-20T06:50:11;5.47;;;5.07;;
3225;SDS011;1625;49.884;8.666;2022-08-20T06:52:40;5.53;;;5.07;;
3225;SDS011;1625;49.884;8.666;2022-08-20T06:55:07;6.10;;;5.50;;
3225;SDS011;1625;49.884;8.666;2022-08-20T06:57:35;6.37;;;5.87;;
3225;SDS011;1625;49.884;8.666;2022-08-20T07:00:12;6.30;;;5.90;;
3225;SDS011;1625;49.884;8.666;2022-08-20T07:02:40;6.77;;;6.20;;
3225;SDS011;1625;49.884;8.666;2022-08-20T07:05:06;7.40;;;6.80;;
3225;SDS011;1625;49.884;8.666;2022-08-20T07:07:32;8.97;;;8.27;;
3225;SDS011;1625;49.884;8.666;2022-08-20T07:10:06;11.03;;;10.13;;
3225;SDS011;1625;49.884;8.666;2022-08-20T07:12:33;10.93;;;10.13;;
3225;SDS011;1625;49.884;8.666;2022-08-20T07:15:00;11.63;;;10.63;;
3225;SDS011;1625;49.884;8.666;2022-08-20T07:17:27;12.80;;;11.80;;
3225;SDS011;1625;49.884;8.666;2022-08-20T07:19:53;14.80;;;13.57;;
3225;SDS011;1625;49.884;8.666;2022-08-20T07:22:19;13.70;;;12.60;;
3225;SDS011;1625;49.884;8.666;2022-08-20T07:24:44;14.30;;;13.20;;
3225;SDS011;1625;49.884;8.666;2022-08-20T07:27:10;14.70;;;13.50;;
3225;SDS011;1625;49.884;8.666;2022-08-20T07:29:37;14.43;;;13.23;;
3225;SDS011;1625;49.884;8.666;2022-08-20T07:32:21;15.27;;;13.97;;
3225;SDS011;1625;49.884;8.666;2022-08-20T07:35:00;13.70;;;12.70;;
3225;SDS011;1625;49.884;8.666;2022-08-20T07:37:28;12.57;;;11.47;;
3225;SDS011;1625;49.884;8.666;2022-08-20T07:39:54;13.17;;;12.07;;
3225;SDS011;1625;49.884;8.666;2022-08-20T07:42:19;12.57;;;11.63;;
3225;SDS011;1625;49.884;8.666;2022-08-20T07:44:45;13.00;;;12.00;;
3225;SDS011;1625;49.884;8.666;2022-08-20T07:47:10;13.20;;;12.00;;
3225;SDS011;1625;49.884;8.666;2022-08-20T07:49:37;14.10;;;12.93;;
3225;SDS011;1625;49.884;8.666;2022-08-20T07:52:03;13.50;;;12.40;;
3225;SDS011;1625;49.884;8.666;2022-08-20T07:54:29;13.23;;;12.23;;
3225;SDS011;1625;49.884;8.666;2022-08-20T07:56:59;13.10;;;12.10;;
3225;SDS011;1625;49.884;8.666;2022-08-20T07:59:27;13.27;;;12.27;;
3225;SDS011;1625;49.884;8.666;2022-08-20T08:01:53;12.60;;;11.60;;
3225;SDS011;1625;49.884;8.666;2022-08-20T08:04:19;12.00;;;11.00;;
3225;SDS011;1625;49.884;8.666;2022-08-20T08:06:44;12.20;;;11.30;;
3225;SDS011;1625;49.884;8.666;2022-08-20T08:09:10;11.20;;;10.30;;
3225;SDS011;1625;49.884;8.666;2022-08-20T08:11:39;11.87;;;10.90;;
3225;SDS011;1625;49.884;8.666;2022-08-20T08:14:09;10.73;;;9.93;;
3225;SDS011;1625;49.884;8.666;2022-08-20T08:16:35;9.97;;;9.20;;
3225;SDS011;1625;49.884;8.666;2022-08-20T08:19:01;9.63;;;8.93;;
3225;SDS011;1625;49.884;8.666;2022-08-20T08:21:30;10.57;;;9.77;;
3225;SDS011;1625;49.884;8.666;2022-08-20T08:23:56;11.10;;;10.20;;
3225;SDS011;1625;49.884;8.666;2022-08-20T08:26:22;9.50;;;8.80;;
3225;SDS011;1625;49.884;8.666;2022-08-20T08:28:47;9.43;;;8.73;;
3225;SDS011;1625;49.884;8.666;2022-08-20T08:31:13;10.47;;;9.57;;
3225;SDS011;1625;49.884;8.666;2022-08-20T08:33:39;10.73;;;9.83;;
3225;SDS011;1625;49.884;8.666;2022-08-20T08:38:36;11.60;;;10.70;;
3225;SDS011;1625;49.884;8.666;2022-08-20T08:41:49;11.17;;;10.17;;
3225;SDS011;1625;49.884;8.666;2022-08-20T08:46:48;9.63;;;8.83;;
3225;SDS011;1625;49.884;8.666;2022-08-20T08:49:24;7.80;;;7.20;;
3225;SDS011;1625;49.884;8.666;2022-08-20T08:52:01;8.43;;;7.63;;
3225;SDS011;1625;49.884;8.666;2022-08-20T08:54:51;7.33;;;6.83;;
3225;SDS011;1625;49.884;8.666;2022-08-20T08:57:20;8.20;;;7.60;;
3225;SDS011;1625;49.884;8.666;2022-08-20T08:59:47;8.60;;;7.90;;
3225;SDS011;1625;49.884;8.666;2022-08-20T09:02:19;7.80;;;7.20;;
3225;SDS011;1625;49.884;8.666;2022-08-20T09:04:47;8.97;;;8.17;;
3225;SDS011;1625;49.884;8.666;2022-08-20T09:07:15;7.00;;;6.40;;
3225;SDS011;1625;49.884;8.666;2022-08-20T09:09:42;6.30;;;5.90;;
3225;SDS011;1625;49.884;8.666;2022-08-20T09:12:12;6.13;;;5.63;;
3225;SDS011;1625;49.884;8.666;2022-08-20T09:14:40;7.47;;;6.80;;
3225;SDS011;1625;49.884;8.666;2022-08-20T09:17:06;6.70;;;6.10;;
3225;SDS011;1625;49.884;8.666;2022-08-20T09:19:32;6.83;;;6.33;;
3225;SDS011;1625;49.884;8.666;2022-08-20T09:21:57;5.67;;;5.23;;
3225;SDS011;1625;49.884;8.666;2022-08-20T09:24:23;5.60;;;5.20;;
3225;SDS011;1625;49.884;8.666;2022-08-20T09:26:49;5.37;;;4.97;;
3225;SDS011;1625;49.884;8.666;2022-08-20T09:29:14;5.43;;;4.90;;
3225;SDS011;1625;49.884;8.666;2022-08-20T09:31:40;5.10;;;4.60;;
3225;SDS011;1625;49.884;8.666;2022-08-20T09:34:07;5.00;;;4.27;;
3225;SDS011;1625;49.884;8.666;2022-08-20T09:36:33;4.50;;;4.20;;
3225;SDS011;1625;49.884;8.666;2022-08-20T09:38:59;4.30;;;4.00;;
3225;SDS011;1625;49.884;8.666;2022-08-20T09:41:25;10.80;;;9.13;;
3225;SDS011;1625;49.884;8.666;2022-08-20T09:43:50;16.37;;;12.30;;
3225;SDS011;1625;49.884;8.666;2022-08-20T09:46:16;4.10;;;3.80;;
3225;SDS011;1625;49.884;8.666;2022-08-20T09:48:42;4.77;;;4.37;;
3225;SDS011;1625;49.884;8.666;2022-08-20T09:51:07;4.90;;;4.50;;
3225;SDS011;1625;49.884;8.666;2022-08-20T09:53:33;4.07;;;3.77;;
3225;SDS011;1625;49.884;8.666;2022-08-20T09:55:58;4.30;;;3.90;;
3225;SDS011;1625;49.884;8.666;2022-08-20T09:58:34;3.87;;;3.57;;
3225;SDS011;1625;49.884;8.666;2022-08-20T10:01:07;4.37;;;4.00;;
3225;SDS011;1625;49.884;8.666;2022-08-20T10:03:35;4.33;;;3.93;;
3225;SDS011;1625;49.884;8.666;2022-08-20T10:06:00;7.80;;;7.00;;
3225;SDS011;1625;49.884;8.666;2022-08-20T10:08:26;3.20;;;3.00;;
3225;SDS011;1625;49.884;8.666;2022-08-20T10:10:52;3.83;;;3.53;;
3225;SDS011;1625;49.884;8.666;2022-08-20T10:13:18;3.60;;;3.30;;
3225;SDS011;1625;49.884;8.666;2022-08-20T10:15:43;3.77;;;3.47;;
3225;SDS011;1625;49.884;8.666;2022-08-20T10:18:09;3.07;;;2.87;;
3225;SDS011;1625;49.884;8.666;2022-08-20T10:20:35;4.03;;;3.70;;
3225;SDS011;1625;49.884;8.666;2022-08-20T10:23:01;3.70;;;3.40;;
3225;SDS011;1625;49.884;8.666;2022-08-20T10:25:27;3.37;;;3.17;;
3225;SDS011;1625;49.884;8.666;2022-08-20T10:27:53;2.90;;;2.70;;
3225;SDS011;1625;49.884;8.666;2022-08-20T10:30:19;3.07;;;2.87;;
3225;SDS011;1625;49.884;8.666;2022-08-20T10:32:45;2.87;;;2.67;;
3225;SDS011;1625;49.884;8.666;2022-08-20T10:35:11;3.43;;;3.13;;
3225;SDS011;1625;49.884;8.666;2022-08-20T10:37:37;3.67;;;3.37;;
3225;SDS011;1625;49.884;8.666;2022-08-20T10:40:03;5.03;;;4.00;;
3225;SDS011;1625;49.884;8.666;2022-08-20T10:42:30;3.00;;;2.80;;
3225;SDS011;1625;49.884;8.666;2022-08-20T10:44:55;2.60;;;2.40;;
3225;SDS011;1625;49.884;8.666;2022-08-20T10:47:28;3.10;;;2.23;;
3225;SDS011;1625;49.884;8.666;2022-08-20T10:49:59;2.50;;;2.30;;
3225;SDS011;1625;49.884;8.666;2022-08-20T10:52:26;2.53;;;2.23;;
3225;SDS011;1625;49.884;8.666;2022-08-20T10:54:53;2.77;;;2.57;;
3225;SDS011;1625;49.884;8.666;2022-08-20T10:57:21;2.60;;;2.40;;
3225;SDS011;1625;49.884;8.666;2022-08-20T10:59:49;2.30;;;2.10;;
3225;SDS011;1625;49.884;8.666;2022-08-20T11:02:15;2.50;;;2.30;;
3225;SDS011;1625;49.884;8.666;2022-08-20T11:04:41;2.30;;;2.10;;
3225;SDS011;1625;49.884;8.666;2022-08-20T11:07:14;2.50;;;2.33;;
3225;SDS011;1625;49.884;8.666;2022-08-20T11:09:40;2.27;;;2.07;;
3225;SDS011;1625;49.884;8.666;2022-08-20T11:12:07;2.50;;;2.30;;
3225;SDS011;1625;49.884;8.666;2022-08-20T11:14:33;1.80;;;1.70;;
3225;SDS011;1625;49.884;8.666;2022-08-20T11:16:59;1.60;;;1.50;;
3225;SDS011;1625;49.884;8.666;2022-08-20T11:19:25;1.97;;;1.77;;
3225;SDS011;1625;49.884;8.666;2022-08-20T11:21:50;1.97;;;1.87;;
3225;SDS011;1625;49.884;8.666;2022-08-20T11:24:16;1.70;;;1.60;;
3225;SDS011;1625;49.884;8.666;2022-08-20T11:26:42;1.63;;;1.53;;
3225;SDS011;1625;49.884;8.666;2022-08-20T11:29:11;1.63;;;1.33;;
3225;SDS011;1625;49.884;8.666;2022-08-20T11:31:37;1.40;;;1.30;;
3225;SDS011;1625;49.884;8.666;2022-08-20T11:34:02;1.40;;;1.30;;
3225;SDS011;1625;49.884;8.666;2022-08-20T11:36:28;1.53;;;1.40;;
3225;SDS011;1625;49.884;8.666;2022-08-20T11:38:53;1.40;;;1.30;;
3225;SDS011;1625;49.884;8.666;2022-08-20T11:41:19;1.20;;;1.10;;
3225;SDS011;1625;49.884;8.666;2022-08-20T11:43:45;1.40;;;1.30;;
3225;SDS011;1625;49.884;8.666;2022-08-20T11:46:10;1.30;;;1.20;;
3225;SDS011;1625;49.884;8.666;2022-08-20T11:48:37;1.67;;;1.40;;
3225;SDS011;1625;49.884;8.666;2022-08-20T11:51:03;1.23;;;1.13;;
3225;SDS011;1625;49.884;8.666;2022-08-20T11:53:29;1.70;;;1.00;;
3225;SDS011;1625;49.884;8.666;2022-08-20T11:55:54;1.30;;;1.20;;
3225;SDS011;1625;49.884;8.666;2022-08-20T11:58:20;1.30;;;1.20;;
3225;SDS011;1625;49.884;8.666;2022-08-20T12:00:46;1.13;;;1.00;;
3225;SDS011;1625;49.884;8.666;2022-08-20T12:03:11;1.40;;;1.30;;
3225;SDS011;1625;49.884;8.666;2022-08-20T12:05:42;1.50;;;1.33;;
3225;SDS011;1625;49.884;8.666;2022-08-20T12:08:09;3.80;;;0.97;;
3225;SDS011;1625;49.884;8.666;2022-08-20T12:10:35;1.10;;;1.00;;
3225;SDS011;1625;49.884;8.666;2022-08-20T12:13:01;1.13;;;1.00;;
3225;SDS011;1625;49.884;8.666;2022-08-20T12:15:27;1.10;;;1.00;;
3225;SDS011;1625;49.884;8.666;2022-08-20T12:17:54;1.10;;;1.00;;
3225;SDS011;1625;49.884;8.666;2022-08-20T12:20:20;1.33;;;1.10;;
3225;SDS011;1625;49.884;8.666;2022-08-20T12:22:47;1.17;;;1.07;;
3225;SDS011;1625;49.884;8.666;2022-08-20T12:25:13;1.10;;;1.00;;
3225;SDS011;1625;49.884;8.666;2022-08-20T12:27:38;1.13;;;1.03;;
3225;SDS011;1625;49.884;8.666;2022-08-20T12:30:12;1.10;;;1.00;;
3225;SDS011;1625;49.884;8.666;2022-08-20T12:32:40;2.07;;;1.50;;
3225;SDS011;1625;49.884;8.666;2022-08-20T12:35:06;1.10;;;1.00;;
3225;SDS011;1625;49.884;8.666;2022-08-20T12:37:33;1.20;;;0.90;;
3225;SDS011;1625;49.884;8.666;2022-08-20T12:40:01;1.00;;;0.90;;
3225;SDS011;1625;49.884;8.666;2022-08-20T12:42:29;1.37;;;1.10;;
3225;SDS011;1625;49.884;8.666;2022-08-20T12:44:55;1.57;;;0.90;;
3225;SDS011;1625;49.884;8.666;2022-08-20T12:47:29;1.70;;;1.20;;
3225;SDS011;1625;49.884;8.666;2022-08-20T12:49:57;2.17;;;1.97;;
3225;SDS011;1625;49.884;8.666;2022-08-20T12:52:25;1.43;;;1.10;;
3225;SDS011;1625;49.884;8.666;2022-08-20T12:54:51;1.10;;;1.00;;
3225;SDS011;1625;49.884;8.666;2022-08-20T12:57:22;2.63;;;2.40;;
3225;SDS011;1625;49.884;8.666;2022-08-20T12:59:52;1.50;;;1.40;;
3225;SDS011;1625;49.884;8.666;2022-08-20T13:02:18;1.43;;;1.30;;
3225;SDS011;1625;49.884;8.666;2022-08-20T13:04:43;1.37;;;1.10;;
3225;SDS011;1625;49.884;8.666;2022-08-20T13:07:09;2.23;;;1.27;;
3225;SDS011;1625;49.884;8.666;2022-08-20T13:09:36;1.40;;;1.17;;
3225;SDS011;1625;49.884;8.666;2022-08-20T13:12:02;2.17;;;1.40;;
3225;SDS011;1625;49.884;8.666;2022-08-20T13:14:28;1.30;;;1.13;;
3225;SDS011;1625;49.884;8.666;2022-08-20T13:16:57;1.20;;;1.10;;
3225;SDS011;1625;49.884;8.666;2022-08-20T13:19:24;1.20;;;1.10;;
3225;SDS011;1625;49.884;8.666;2022-08-20T13:21:51;1.50;;;1.40;;
3225;SDS011;1625;49.884;8.666;2022-08-20T13:24:17;1.20;;;1.00;;
3225;SDS011;1625;49.884;8.666;2022-08-20T13:26:43;1.20;;;1.10;;
3225;SDS011;1625;49.884;8.666;2022-08-20T13:29:08;1.17;;;1.07;;
3225;SDS011;1625;49.884;8.666;2022-08-20T13:31:34;1.23;;;1.00;;
3225;SDS011;1625;49.884;8.666;2022-08-20T13:33:59;1.50;;;1.30;;
3225;SDS011;1625;49.884;8.666;2022-08-20T13:36:25;1.53;;;1.43;;
3225;SDS011;1625;49.884;8.666;2022-08-20T13:38:51;1.53;;;1.43;;
3225;SDS011;1625;49.884;8.666;2022-08-20T13:41:16;2.77;;;1.40;;
3225;SDS011;1625;49.884;8.666;2022-08-20T13:43:42;1.50;;;1.40;;
3225;SDS011;1625;49.884;8.666;2022-08-20T13:46:07;1.40;;;1.30;;
3225;SDS011;1625;49.884;8.666;2022-08-20T13:48:33;1.60;;;1.50;;
3225;SDS011;1625;49.884;8.666;2022-08-20T13:50:59;1.87;;;1.77;;
3225;SDS011;1625;49.884;8.666;2022-08-20T13:53:24;1.67;;;1.53;;
3225;SDS011;1625;49.884;8.666;2022-08-20T13:55:50;2.20;;;1.43;;
3225;SDS011;1625;49.884;8.666;2022-08-20T13:58:16;2.03;;;1.43;;
3225;SDS011;1625;49.884;8.666;2022-08-20T14:00:43;1.77;;;1.67;;
3225;SDS011;1625;49.884;8.666;2022-08-20T14:03:10;2.10;;;1.90;;
3225;SDS011;1625;49.884;8.666;2022-08-20T14:05:36;2.60;;;2.40;;
3225;SDS011;1625;49.884;8.666;2022-08-20T14:08:03;2.10;;;1.90;;
3225;SDS011;1625;49.884;8.666;2022-08-20T14:10:36;1.90;;;1.70;;
3225;SDS011;1625;49.884;8.666;2022-08-20T14:13:03;2.43;;;2.13;;
3225;SDS011;1625;49.884;8.666;2022-08-20T14:15:29;2.10;;;1.90;;
3225;SDS011;1625;49.884;8.666;2022-08-20T14:17:55;3.70;;;3.40;;
3225;SDS011;1625;49.884;8.666;2022-08-20T14:20:23;3.30;;;3.00;;
3225;SDS011;1625;49.884;8.666;2022-08-20T14:22:50;3.93;;;3.53;;
3225;SDS011;1625;49.884;8.666;2022-08-20T14:25:17;6.53;;;1.73;;
3225;SDS011;1625;49.884;8.666;2022-08-20T14:27:44;2.50;;;2.30;;
3225;SDS011;1625;49.884;8.666;2022-08-20T14:30:11;2.60;;;2.40;;
3225;SDS011;1625;49.884;8.666;2022-08-20T14:32:39;2.53;;;2.33;;
3225;SDS011;1625;49.884;8.666;2022-08-20T14:35:05;3.20;;;2.90;;
3225;SDS011;1625;49.884;8.666;2022-08-20T14:37:33;2.30;;;2.10;;
3225;SDS011;1625;49.884;8.666;2022-08-20T14:40:03;2.30;;;2.10;;
3225;SDS011;1625;49.884;8.666;2022-08-20T14:42:30;3.17;;;2.90;;
3225;SDS011;1625;49.884;8.666;2022-08-20T14:44:56;2.33;;;2.10;;
3225;SDS011;1625;49.884;8.666;2022-08-20T14:50:04;2.00;;;1.80;;
3225;SDS011;1625;49.884;8.666;2022-08-20T14:52:32;2.33;;;2.13;;
3225;SDS011;1625;49.884;8.666;2022-08-20T14:55:01;2.43;;;2.20;;
3225;SDS011;1625;49.884;8.666;2022-08-20T14:57:28;2.37;;;2.17;;
3225;SDS011;1625;49.884;8.666;2022-08-20T14:59:54;2.27;;;2.07;;
3225;SDS011;1625;49.884;8.666;2022-08-20T15:02:20;2.30;;;2.00;;
3225;SDS011;1625;49.884;8.666;2022-08-20T15:04:47;4.00;;;2.30;;
3225;SDS011;1625;49.884;8.666;2022-08-20T15:07:23;2.53;;;2.10;;
3225;SDS011;1625;49.884;8.666;2022-08-20T15:09:50;2.03;;;1.83;;
3225;SDS011;1625;49.884;8.666;2022-08-20T15:12:16;3.03;;;2.33;;
3225;SDS011;1625;49.884;8.666;2022-08-20T15:14:42;2.83;;;2.20;;
3225;SDS011;1625;49.884;8.666;2022-08-20T15:17:09;2.40;;;2.20;;
3225;SDS011;1625;49.884;8.666;2022-08-20T15:19:35;2.73;;;2.53;;
3225;SDS011;1625;49.884;8.666;2022-08-20T15:22:01;2.83;;;2.20;;
3225;SDS011;1625;49.884;8.666;2022-08-20T15:24:26;2.53;;;2.33;;
3225;SDS011;1625;49.884;8.666;2022-08-20T15:26:52;2.40;;;2.20;;
3225;SDS011;1625;49.884;8.666;2022-08-20T15:29:17;3.17;;;2.57;;